sensor_id;sensor_type;location;lat;lon;timestamp;temperature;humidity
46816;DHT22;32787;53.316;8.670;2023-02-15T00:01:51;0.00;94.60
46816;DHT22;32787;53.316;8.670;2023-02-15T00:04:20;0.00;94.60
46816;DHT22;32787;53.316;8.670;2023-02-15T00:06:46;-3276.70;94.70
46816;DHT22;32787;53.316;8.670;2023-02-15T00:09:13;-3276.70;94.70
46816;DHT22;32787;53.316;8.670;2023-02-15T00:11:39;0.00;94.80
46816;DHT22;32787;53.316;8.670;2023-02-15T00:16:44;0.00;94.80
46816;DHT22;32787;53.316;8.670;2023-02-15T00:19:11;0.00;94.80
46816;DHT22;32787;53.316;8.670;2023-02-15T00:21:38;-3276.70;94.80
46816;DHT22;32787;53.316;8.670;2023-02-15T00:24:08;-3276.70;94.90
46816;DHT22;32787;53.316;8.670;2023-02-15T00:26:34;-3276.70;94.90
46816;DHT22;32787;53.316;8.670;2023-02-15T00:29:01;-3276.70;94.90
46816;DHT22;32787;53.316;8.670;2023-02-15T00:31:30;-3276.60;94.90
46816;DHT22;32787;53.316;8.670;2023-02-15T00:34:11;-3276.60;94.80
46816;DHT22;32787;53.316;8.670;2023-02-15T00:36:37;-3276.60;94.90
46816;DHT22;32787;53.316;8.670;2023-02-15T00:39:03;-3276.60;95.00
46816;DHT22;32787;53.316;8.670;2023-02-15T00:41:30;-3276.60;94.90
46816;DHT22;32787;53.316;8.670;2023-02-15T00:43:56;-3276.50;94.90
46816;DHT22;32787;53.316;8.670;2023-02-15T00:46:22;-3276.60;94.80
46816;DHT22;32787;53.316;8.670;2023-02-15T00:48:47;-3276.50;94.80
46816;DHT22;32787;53.316;8.670;2023-02-15T00:51:13;-3276.40;94.90
46816;DHT22;32787;53.316;8.670;2023-02-15T00:53:39;-3276.40;94.90
46816;DHT22;32787;53.316;8.670;2023-02-15T00:56:04;-3276.30;94.90
46816;DHT22;32787;53.316;8.670;2023-02-15T00:58:30;-3276.30;95.00
46816;DHT22;32787;53.316;8.670;2023-02-15T01:01:03;-3276.30;95.00
46816;DHT22;32787;53.316;8.670;2023-02-15T01:03:29;-3276.30;95.00
46816;DHT22;32787;53.316;8.670;2023-02-15T01:05:55;-3276.50;95.20
46816;DHT22;32787;53.316;8.670;2023-02-15T01:08:20;-3276.60;95.10
46816;DHT22;32787;53.316;8.670;2023-02-15T01:10:46;-3276.60;95.10
46816;DHT22;32787;53.316;8.670;2023-02-15T01:13:13;-3276.70;95.10
46816;DHT22;32787;53.316;8.670;2023-02-15T01:15:39;-3276.60;95.10
46816;DHT22;32787;53.316;8.670;2023-02-15T01:18:05;-3276.60;95.10
46816;DHT22;32787;53.316;8.670;2023-02-15T01:20:35;-3276.60;95.20
46816;DHT22;32787;53.316;8.670;2023-02-15T01:23:02;-3276.70;95.20
46816;DHT22;32787;53.316;8.670;2023-02-15T01:25:28;-3276.70;95.20
46816;DHT22;32787;53.316;8.670;2023-02-15T01:27:53;-3276.40;95.20
46816;DHT22;32787;53.316;8.670;2023-02-15T01:30:19;-3276.40;95.20
46816;DHT22;32787;53.316;8.670;2023-02-15T01:32:44;-3276.50;95.20
46816;DHT22;32787;53.316;8.670;2023-02-15T01:35:11;-3276.40;95.20
46816;DHT22;32787;53.316;8.670;2023-02-15T01:37:37;-3276.40;95.20
46816;DHT22;32787;53.316;8.670;2023-02-15T01:40:05;-3276.40;95.20
46816;DHT22;32787;53.316;8.670;2023-02-15T01:42:31;-3276.40;95.30
46816;DHT22;32787;53.316;8.670;2023-02-15T01:44:58;-3276.40;95.30
46816;DHT22;32787;53.316;8.670;2023-02-15T01:47:39;-3276.40;95.30
46816;DHT22;32787;53.316;8.670;2023-02-15T01:52:37;-3276.40;95.30
46816;DHT22;32787;53.316;8.670;2023-02-15T01:55:07;-3276.70;95.40
46816;DHT22;32787;53.316;8.670;2023-02-15T01:57:34;0.00;95.30
46816;DHT22;32787;53.316;8.670;2023-02-15T02:00:02;-3276.70;95.30
46816;DHT22;32787;53.316;8.670;2023-02-15T02:02:28;0.00;95.40
46816;DHT22;32787;53.316;8.670;2023-02-15T02:04:59;0.00;95.40
46816;DHT22;32787;53.316;8.670;2023-02-15T02:07:29;0.20;95.50
46816;DHT22;32787;53.316;8.670;2023-02-15T02:09:57;0.40;95.30
46816;DHT22;32787;53.316;8.670;2023-02-15T02:12:23;0.30;95.30
46816;DHT22;32787;53.316;8.670;2023-02-15T02:14:51;0.10;95.30
46816;DHT22;32787;53.316;8.670;2023-02-15T02:17:22;0.20;95.30
46816;DHT22;32787;53.316;8.670;2023-02-15T02:20:28;0.20;95.30
46816;DHT22;32787;53.316;8.670;2023-02-15T02:34:01;0.30;95.30
46816;DHT22;32787;53.316;8.670;2023-02-15T02:42:25;0.30;95.30
46816;DHT22;32787;53.316;8.670;2023-02-15T02:44:59;0.40;95.30
46816;DHT22;32787;53.316;8.670;2023-02-15T02:47:45;0.50;95.50
46816;DHT22;32787;53.316;8.670;2023-02-15T02:50:21;0.40;95.30
46816;DHT22;32787;53.316;8.670;2023-02-15T02:52:49;0.30;95.20
46816;DHT22;32787;53.316;8.670;2023-02-15T02:58:11;0.00;95.20
46816;DHT22;32787;53.316;8.670;2023-02-15T03:01:00;0.10;95.20
46816;DHT22;32787;53.316;8.670;2023-02-15T03:03:36;0.00;95.10
46816;DHT22;32787;53.316;8.670;2023-02-15T03:06:12;0.00;95.20
46816;DHT22;32787;53.316;8.670;2023-02-15T03:08:45;0.10;95.30
46816;DHT22;32787;53.316;8.670;2023-02-15T03:11:12;0.10;95.20
46816;DHT22;32787;53.316;8.670;2023-02-15T03:13:38;0.10;95.20
46816;DHT22;32787;53.316;8.670;2023-02-15T03:16:05;0.20;95.20
46816;DHT22;32787;53.316;8.670;2023-02-15T03:18:57;0.20;95.20
46816;DHT22;32787;53.316;8.670;2023-02-15T03:24:17;0.30;95.10
46816;DHT22;32787;53.316;8.670;2023-02-15T03:26:47;0.20;95.10
46816;DHT22;32787;53.316;8.670;2023-02-15T03:29:14;0.10;95.10
46816;DHT22;32787;53.316;8.670;2023-02-15T03:31:43;0.10;95.10
46816;DHT22;32787;53.316;8.670;2023-02-15T03:34:12;0.10;95.10
46816;DHT22;32787;53.316;8.670;2023-02-15T03:41:55;0.10;95.10
46816;DHT22;32787;53.316;8.670;2023-02-15T03:44:30;0.10;95.00
46816;DHT22;32787;53.316;8.670;2023-02-15T03:49:29;0.10;95.00
46816;DHT22;32787;53.316;8.670;2023-02-15T03:51:58;0.20;94.80
46816;DHT22;32787;53.316;8.670;2023-02-15T03:54:27;0.00;94.80
46816;DHT22;32787;53.316;8.670;2023-02-15T03:57:24;0.00;94.80
46816;DHT22;32787;53.316;8.670;2023-02-15T04:00:21;-3276.70;94.80
46816;DHT22;32787;53.316;8.670;2023-02-15T04:05:39;-3276.50;94.80
46816;DHT22;32787;53.316;8.670;2023-02-15T04:08:06;-3276.50;94.80
46816;DHT22;32787;53.316;8.670;2023-02-15T04:10:31;-3276.50;94.70
46816;DHT22;32787;53.316;8.670;2023-02-15T04:13:15;-3276.30;94.70
46816;DHT22;32787;53.316;8.670;2023-02-15T04:15:41;-3276.30;94.80
46816;DHT22;32787;53.316;8.670;2023-02-15T04:18:25;-3276.20;94.80
46816;DHT22;32787;53.316;8.670;2023-02-15T04:21:10;-3276.30;94.90
46816;DHT22;32787;53.316;8.670;2023-02-15T04:23:54;-3276.40;94.80
46816;DHT22;32787;53.316;8.670;2023-02-15T04:26:38;-3276.40;94.80
46816;DHT22;32787;53.316;8.670;2023-02-15T04:29:04;-3276.30;94.80
46816;DHT22;32787;53.316;8.670;2023-02-15T04:31:29;-3276.50;94.70
46816;DHT22;32787;53.316;8.670;2023-02-15T04:33:55;-3276.30;94.80
46816;DHT22;32787;53.316;8.670;2023-02-15T04:36:20;-3276.40;94.90
46816;DHT22;32787;53.316;8.670;2023-02-15T04:38:46;-3276.50;94.80
46816;DHT22;32787;53.316;8.670;2023-02-15T04:41:12;-3276.50;94.80
46816;DHT22;32787;53.316;8.670;2023-02-15T04:43:38;-3276.20;94.80
46816;DHT22;32787;53.316;8.670;2023-02-15T04:46:04;-3276.10;94.80
46816;DHT22;32787;53.316;8.670;2023-02-15T04:48:29;-3276.10;94.80
46816;DHT22;32787;53.316;8.670;2023-02-15T04:50:55;-3276.30;94.90
46816;DHT22;32787;53.316;8.670;2023-02-15T04:53:21;-3276.30;94.80
46816;DHT22;32787;53.316;8.670;2023-02-15T04:55:47;-3276.30;94.70
46816;DHT22;32787;53.316;8.670;2023-02-15T04:58:12;-3276.30;94.70
46816;DHT22;32787;53.316;8.670;2023-02-15T05:00:38;-3276.40;94.50
46816;DHT22;32787;53.316;8.670;2023-02-15T05:03:03;-3276.20;94.40
46816;DHT22;32787;53.316;8.670;2023-02-15T05:05:29;-3276.00;94.40
46816;DHT22;32787;53.316;8.670;2023-02-15T05:07:55;-3275.90;94.40
46816;DHT22;32787;53.316;8.670;2023-02-15T05:10:21;-3276.10;94.60
46816;DHT22;32787;53.316;8.670;2023-02-15T05:12:46;-3276.20;94.50
46816;DHT22;32787;53.316;8.670;2023-02-15T05:15:12;-3276.00;94.30
46816;DHT22;32787;53.316;8.670;2023-02-15T05:17:38;-3275.80;94.40
46816;DHT22;32787;53.316;8.670;2023-02-15T05:20:04;-3275.80;94.40
46816;DHT22;32787;53.316;8.670;2023-02-15T05:22:29;-3275.70;94.50
46816;DHT22;32787;53.316;8.670;2023-02-15T05:24:55;-3275.70;94.50
46816;DHT22;32787;53.316;8.670;2023-02-15T05:27:39;-3276.00;94.50
46816;DHT22;32787;53.316;8.670;2023-02-15T05:30:24;-3276.00;94.40
46816;DHT22;32787;53.316;8.670;2023-02-15T05:32:49;-3275.90;94.40
46816;DHT22;32787;53.316;8.670;2023-02-15T05:35:15;-3276.00;94.30
46816;DHT22;32787;53.316;8.670;2023-02-15T05:37:41;-3275.70;94.20
46816;DHT22;32787;53.316;8.670;2023-02-15T05:40:07;-3275.60;94.30
46816;DHT22;32787;53.316;8.670;2023-02-15T05:42:33;-3275.70;94.30
46816;DHT22;32787;53.316;8.670;2023-02-15T05:44:59;-3275.80;94.30
46816;DHT22;32787;53.316;8.670;2023-02-15T05:47:24;-3275.80;94.30
46816;DHT22;32787;53.316;8.670;2023-02-15T05:49:50;-3275.80;94.30
46816;DHT22;32787;53.316;8.670;2023-02-15T05:52:16;-3275.80;94.30
46816;DHT22;32787;53.316;8.670;2023-02-15T05:54:41;-3275.60;94.20
46816;DHT22;32787;53.316;8.670;2023-02-15T05:57:07;-3275.50;94.20
46816;DHT22;32787;53.316;8.670;2023-02-15T05:59:32;-3275.60;94.20
46816;DHT22;32787;53.316;8.670;2023-02-15T06:01:58;-3275.70;94.30
46816;DHT22;32787;53.316;8.670;2023-02-15T06:04:24;-3275.70;94.10
46816;DHT22;32787;53.316;8.670;2023-02-15T06:06:49;-3275.70;94.20
46816;DHT22;32787;53.316;8.670;2023-02-15T06:09:15;-3275.50;94.10
46816;DHT22;32787;53.316;8.670;2023-02-15T06:11:44;-3275.40;94.20
46816;DHT22;32787;53.316;8.670;2023-02-15T06:14:10;-3275.30;94.20
46816;DHT22;32787;53.316;8.670;2023-02-15T06:16:35;-3275.20;94.30
46816;DHT22;32787;53.316;8.670;2023-02-15T06:19:02;-3275.60;94.40
46816;DHT22;32787;53.316;8.670;2023-02-15T06:21:29;-3275.60;94.20
46816;DHT22;32787;53.316;8.670;2023-02-15T06:23:54;-3275.60;94.30
46816;DHT22;32787;53.316;8.670;2023-02-15T06:26:20;-3275.50;94.30
46816;DHT22;32787;53.316;8.670;2023-02-15T06:28:46;-3275.50;94.20
46816;DHT22;32787;53.316;8.670;2023-02-15T06:31:11;-3275.40;94.20
46816;DHT22;32787;53.316;8.670;2023-02-15T06:33:37;-3275.50;94.20
46816;DHT22;32787;53.316;8.670;2023-02-15T06:36:03;-3275.30;94.00
46816;DHT22;32787;53.316;8.670;2023-02-15T06:38:29;-3275.20;94.10
46816;DHT22;32787;53.316;8.670;2023-02-15T06:40:55;-3275.20;94.10
46816;DHT22;32787;53.316;8.670;2023-02-15T06:43:21;-3275.10;94.10
46816;DHT22;32787;53.316;8.670;2023-02-15T06:45:46;-3275.10;94.20
46816;DHT22;32787;53.316;8.670;2023-02-15T06:48:12;-3275.10;94.10
46816;DHT22;32787;53.316;8.670;2023-02-15T06:50:37;-3275.00;94.20
46816;DHT22;32787;53.316;8.670;2023-02-15T06:53:03;-3275.10;94.30
46816;DHT22;32787;53.316;8.670;2023-02-15T06:55:29;-3275.10;94.30
46816;DHT22;32787;53.316;8.670;2023-02-15T06:57:54;-3275.00;94.30
46816;DHT22;32787;53.316;8.670;2023-02-15T07:00:20;-3275.10;94.40
46816;DHT22;32787;53.316;8.670;2023-02-15T07:02:47;-3275.10;94.50
46816;DHT22;32787;53.316;8.670;2023-02-15T07:05:13;-3275.30;94.60
46816;DHT22;32787;53.316;8.670;2023-02-15T07:07:38;-3275.40;94.60
46816;DHT22;32787;53.316;8.670;2023-02-15T07:10:04;-3275.50;94.70
46816;DHT22;32787;53.316;8.670;2023-02-15T07:12:30;-3275.80;94.70
46816;DHT22;32787;53.316;8.670;2023-02-15T07:15:13;-3275.80;94.20
46816;DHT22;32787;53.316;8.670;2023-02-15T07:17:39;-3275.50;94.20
46816;DHT22;32787;53.316;8.670;2023-02-15T07:20:17;-3275.30;94.10
46816;DHT22;32787;53.316;8.670;2023-02-15T07:22:43;-3275.30;94.20
46816;DHT22;32787;53.316;8.670;2023-02-15T07:25:10;-3275.30;94.10
46816;DHT22;32787;53.316;8.670;2023-02-15T07:27:37;-3275.30;94.20
46816;DHT22;32787;53.316;8.670;2023-02-15T07:30:05;-3275.30;94.10
46816;DHT22;32787;53.316;8.670;2023-02-15T07:32:32;-3275.30;94.10
46816;DHT22;32787;53.316;8.670;2023-02-15T07:34:58;-3275.40;94.30
46816;DHT22;32787;53.316;8.670;2023-02-15T07:37:25;-3275.40;94.20
46816;DHT22;32787;53.316;8.670;2023-02-15T07:39:50;-3275.40;94.20
46816;DHT22;32787;53.316;8.670;2023-02-15T07:42:16;-3275.60;94.40
46816;DHT22;32787;53.316;8.670;2023-02-15T07:44:43;-3275.70;94.40
46816;DHT22;32787;53.316;8.670;2023-02-15T07:47:08;-3275.80;94.40
46816;DHT22;32787;53.316;8.670;2023-02-15T07:49:34;-3275.90;94.40
46816;DHT22;32787;53.316;8.670;2023-02-15T07:52:01;-3275.90;94.40
46816;DHT22;32787;53.316;8.670;2023-02-15T07:54:27;-3275.80;94.40
46816;DHT22;32787;53.316;8.670;2023-02-15T07:56:52;-3275.90;94.40
46816;DHT22;32787;53.316;8.670;2023-02-15T07:59:18;-3276.00;94.40
46816;DHT22;32787;53.316;8.670;2023-02-15T08:01:43;-3276.10;94.40
46816;DHT22;32787;53.316;8.670;2023-02-15T08:04:09;-3276.10;94.40
46816;DHT22;32787;53.316;8.670;2023-02-15T08:06:37;-3276.30;94.50
46816;DHT22;32787;53.316;8.670;2023-02-15T08:09:05;-3276.40;94.50
46816;DHT22;32787;53.316;8.670;2023-02-15T08:11:33;-3276.60;94.60
46816;DHT22;32787;53.316;8.670;2023-02-15T08:14:03;0.10;94.50
46816;DHT22;32787;53.316;8.670;2023-02-15T08:19:10;0.60;94.20
46816;DHT22;32787;53.316;8.670;2023-02-15T08:21:38;0.90;94.10
46816;DHT22;32787;53.316;8.670;2023-02-15T08:24:06;1.30;93.90
46816;DHT22;32787;53.316;8.670;2023-02-15T08:26:32;1.60;93.00
46816;DHT22;32787;53.316;8.670;2023-02-15T08:28:59;1.90;92.40
46816;DHT22;32787;53.316;8.670;2023-02-15T08:31:25;1.90;91.60
46816;DHT22;32787;53.316;8.670;2023-02-15T08:33:52;2.00;91.50
46816;DHT22;32787;53.316;8.670;2023-02-15T08:36:20;1.90;90.90
46816;DHT22;32787;53.316;8.670;2023-02-15T08:38:47;1.90;90.90
46816;DHT22;32787;53.316;8.670;2023-02-15T08:41:25;1.60;90.90
46816;DHT22;32787;53.316;8.670;2023-02-15T08:43:55;1.80;91.40
46816;DHT22;32787;53.316;8.670;2023-02-15T08:46:24;1.70;91.10
46816;DHT22;32787;53.316;8.670;2023-02-15T08:48:50;1.60;91.40
46816;DHT22;32787;53.316;8.670;2023-02-15T08:51:21;1.50;91.90
46816;DHT22;32787;53.316;8.670;2023-02-15T08:53:50;1.40;92.00
46816;DHT22;32787;53.316;8.670;2023-02-15T08:56:18;1.40;92.20
46816;DHT22;32787;53.316;8.670;2023-02-15T08:58:44;1.40;92.60
46816;DHT22;32787;53.316;8.670;2023-02-15T09:03:35;1.70;92.60
46816;DHT22;32787;53.316;8.670;2023-02-15T09:06:01;2.00;92.40
46816;DHT22;32787;53.316;8.670;2023-02-15T09:08:28;2.20;92.00
46816;DHT22;32787;53.316;8.670;2023-02-15T09:10:54;2.20;91.90
46816;DHT22;32787;53.316;8.670;2023-02-15T09:13:29;2.20;92.50
46816;DHT22;32787;53.316;8.670;2023-02-15T09:15:59;2.30;92.40
46816;DHT22;32787;53.316;8.670;2023-02-15T09:18:25;2.40;92.90
46816;DHT22;32787;53.316;8.670;2023-02-15T09:20:51;2.40;93.20
46816;DHT22;32787;53.316;8.670;2023-02-15T09:23:16;2.40;93.30
46816;DHT22;32787;53.316;8.670;2023-02-15T09:25:42;2.70;93.40
46816;DHT22;32787;53.316;8.670;2023-02-15T09:28:08;2.80;93.20
46816;DHT22;32787;53.316;8.670;2023-02-15T09:30:34;2.80;93.30
46816;DHT22;32787;53.316;8.670;2023-02-15T09:32:59;2.90;93.30
46816;DHT22;32787;53.316;8.670;2023-02-15T09:35:25;3.00;93.50
46816;DHT22;32787;53.316;8.670;2023-02-15T09:37:51;3.30;93.50
46816;DHT22;32787;53.316;8.670;2023-02-15T09:40:17;3.40;93.40
46816;DHT22;32787;53.316;8.670;2023-02-15T09:43:16;3.60;93.20
46816;DHT22;32787;53.316;8.670;2023-02-15T09:48:34;3.70;93.00
46816;DHT22;32787;53.316;8.670;2023-02-15T09:51:38;3.80;93.20
46816;DHT22;32787;53.316;8.670;2023-02-15T09:57:38;4.20;93.10
46816;DHT22;32787;53.316;8.670;2023-02-15T10:00:20;4.40;93.10
46816;DHT22;32787;53.316;8.670;2023-02-15T10:05:25;4.60;92.80
46816;DHT22;32787;53.316;8.670;2023-02-15T10:13:27;4.90;93.10
46816;DHT22;32787;53.316;8.670;2023-02-15T10:16:06;5.10;92.80
46816;DHT22;32787;53.316;8.670;2023-02-15T10:18:48;5.20;92.20
46816;DHT22;32787;53.316;8.670;2023-02-15T10:27:12;5.90;91.30
46816;DHT22;32787;53.316;8.670;2023-02-15T10:29:43;5.70;91.20
46816;DHT22;32787;53.316;8.670;2023-02-15T10:32:27;5.80;91.00
46816;DHT22;32787;53.316;8.670;2023-02-15T10:37:45;5.90;91.20
46816;DHT22;32787;53.316;8.670;2023-02-15T10:51:11;6.30;90.30
46816;DHT22;32787;53.316;8.670;2023-02-15T10:56:24;6.60;89.90
46816;DHT22;32787;53.316;8.670;2023-02-15T11:01:58;6.80;89.30
46816;DHT22;32787;53.316;8.670;2023-02-15T11:07:03;6.80;89.50
46816;DHT22;32787;53.316;8.670;2023-02-15T11:09:37;7.00;89.00
46816;DHT22;32787;53.316;8.670;2023-02-15T11:12:10;6.90;88.70
46816;DHT22;32787;53.316;8.670;2023-02-15T11:14:46;6.80;89.20
46816;DHT22;32787;53.316;8.670;2023-02-15T11:17:23;7.20;89.60
46816;DHT22;32787;53.316;8.670;2023-02-15T11:22:22;7.10;88.50
46816;DHT22;32787;53.316;8.670;2023-02-15T11:24:48;7.30;88.10
46816;DHT22;32787;53.316;8.670;2023-02-15T11:27:20;7.30;88.50
46816;DHT22;32787;53.316;8.670;2023-02-15T11:30:10;7.40;88.40
46816;DHT22;32787;53.316;8.670;2023-02-15T11:32:46;7.60;87.40
46816;DHT22;32787;53.316;8.670;2023-02-15T11:35:40;7.80;87.20
46816;DHT22;32787;53.316;8.670;2023-02-15T11:38:24;7.90;86.20
46816;DHT22;32787;53.316;8.670;2023-02-15T11:40:57;7.80;86.30
46816;DHT22;32787;53.316;8.670;2023-02-15T11:43:43;7.80;86.60
46816;DHT22;32787;53.316;8.670;2023-02-15T11:46:12;7.70;86.80
46816;DHT22;32787;53.316;8.670;2023-02-15T11:48:38;7.80;87.10
46816;DHT22;32787;53.316;8.670;2023-02-15T11:51:04;8.00;86.30
46816;DHT22;32787;53.316;8.670;2023-02-15T11:53:36;8.00;86.10
46816;DHT22;32787;53.316;8.670;2023-02-15T11:56:03;8.30;86.70
46816;DHT22;32787;53.316;8.670;2023-02-15T12:01:24;8.50;85.00
46816;DHT22;32787;53.316;8.670;2023-02-15T12:04:06;8.50;85.30
46816;DHT22;32787;53.316;8.670;2023-02-15T12:06:38;8.70;84.50
46816;DHT22;32787;53.316;8.670;2023-02-15T12:11:37;8.60;84.60
46816;DHT22;32787;53.316;8.670;2023-02-15T12:14:06;8.60;85.20
46816;DHT22;32787;53.316;8.670;2023-02-15T12:16:45;8.60;84.70
46816;DHT22;32787;53.316;8.670;2023-02-15T12:19:32;8.70;85.20
46816;DHT22;32787;53.316;8.670;2023-02-15T12:22:01;8.90;83.90
46816;DHT22;32787;53.316;8.670;2023-02-15T12:24:34;8.90;84.10
46816;DHT22;32787;53.316;8.670;2023-02-15T12:27:13;9.20;83.60
46816;DHT22;32787;53.316;8.670;2023-02-15T12:29:42;9.20;83.70
46816;DHT22;32787;53.316;8.670;2023-02-15T12:32:16;9.30;82.80
46816;DHT22;32787;53.316;8.670;2023-02-15T12:34:44;9.30;82.70
46816;DHT22;32787;53.316;8.670;2023-02-15T12:37:17;9.40;82.10
46816;DHT22;32787;53.316;8.670;2023-02-15T12:42:21;9.50;81.30
46816;DHT22;32787;53.316;8.670;2023-02-15T12:44:59;9.50;80.50
46816;DHT22;32787;53.316;8.670;2023-02-15T12:47:26;9.40;80.90
46816;DHT22;32787;53.316;8.670;2023-02-15T12:50:16;9.50;80.70
46816;DHT22;32787;53.316;8.670;2023-02-15T12:52:48;9.70;80.40
46816;DHT22;32787;53.316;8.670;2023-02-15T12:55:26;9.60;80.30
46816;DHT22;32787;53.316;8.670;2023-02-15T13:00:32;9.80;80.70
46816;DHT22;32787;53.316;8.670;2023-02-15T13:02:59;9.90;79.70
46816;DHT22;32787;53.316;8.670;2023-02-15T13:05:35;10.00;78.40
46816;DHT22;32787;53.316;8.670;2023-02-15T13:08:03;9.90;78.90
46816;DHT22;32787;53.316;8.670;2023-02-15T13:10:52;9.70;79.30
46816;DHT22;32787;53.316;8.670;2023-02-15T13:13:21;9.90;78.80
46816;DHT22;32787;53.316;8.670;2023-02-15T13:15:50;9.90;79.60
46816;DHT22;32787;53.316;8.670;2023-02-15T13:18:32;9.90;79.10
46816;DHT22;32787;53.316;8.670;2023-02-15T13:21:20;9.90;79.60
46816;DHT22;32787;53.316;8.670;2023-02-15T13:23:57;10.20;78.40
46816;DHT22;32787;53.316;8.670;2023-02-15T13:26:28;10.00;78.50
46816;DHT22;32787;53.316;8.670;2023-02-15T13:29:05;10.20;79.30
46816;DHT22;32787;53.316;8.670;2023-02-15T13:31:34;10.20;79.60
46816;DHT22;32787;53.316;8.670;2023-02-15T13:34:10;10.20;79.60
46816;DHT22;32787;53.316;8.670;2023-02-15T13:36:54;10.30;79.00
46816;DHT22;32787;53.316;8.670;2023-02-15T13:39:30;10.40;78.60
46816;DHT22;32787;53.316;8.670;2023-02-15T13:45:02;10.50;78.10
46816;DHT22;32787;53.316;8.670;2023-02-15T14:17:59;10.80;77.80
46816;DHT22;32787;53.316;8.670;2023-02-15T14:29:38;10.30;79.00
46816;DHT22;32787;53.316;8.670;2023-02-15T14:34:57;10.30;79.50
46816;DHT22;32787;53.316;8.670;2023-02-15T14:48:57;9.80;80.20
46816;DHT22;32787;53.316;8.670;2023-02-15T14:56:41;9.80;80.40
46816;DHT22;32787;53.316;8.670;2023-02-15T14:59:18;9.80;80.90
46816;DHT22;32787;53.316;8.670;2023-02-15T15:04:40;9.90;80.80
46816;DHT22;32787;53.316;8.670;2023-02-15T15:15:33;9.60;81.20
46816;DHT22;32787;53.316;8.670;2023-02-15T15:42:27;8.90;83.00
46816;DHT22;32787;53.316;8.670;2023-02-15T15:50:41;8.30;85.00
46816;DHT22;32787;53.316;8.670;2023-02-15T15:53:18;8.20;85.20
46816;DHT22;32787;53.316;8.670;2023-02-15T15:55:47;8.10;85.70
46816;DHT22;32787;53.316;8.670;2023-02-15T15:58:17;8.00;86.00
46816;DHT22;32787;53.316;8.670;2023-02-15T16:03:28;7.90;86.30
46816;DHT22;32787;53.316;8.670;2023-02-15T16:05:55;7.70;86.70
46816;DHT22;32787;53.316;8.670;2023-02-15T16:08:36;7.50;87.00
46816;DHT22;32787;53.316;8.670;2023-02-15T16:11:26;7.30;87.30
46816;DHT22;32787;53.316;8.670;2023-02-15T16:13:53;7.30;87.50
46816;DHT22;32787;53.316;8.670;2023-02-15T16:16:24;7.20;87.30
46816;DHT22;32787;53.316;8.670;2023-02-15T16:18:53;6.90;87.60
46816;DHT22;32787;53.316;8.670;2023-02-15T16:21:34;6.80;87.90
46816;DHT22;32787;53.316;8.670;2023-02-15T16:29:15;6.40;88.60
46816;DHT22;32787;53.316;8.670;2023-02-15T16:31:41;6.30;88.80
46816;DHT22;32787;53.316;8.670;2023-02-15T16:34:14;6.20;89.20
46816;DHT22;32787;53.316;8.670;2023-02-15T16:36:41;6.30;89.20
46816;DHT22;32787;53.316;8.670;2023-02-15T16:39:09;6.10;89.30
46816;DHT22;32787;53.316;8.670;2023-02-15T16:41:36;6.00;89.50
46816;DHT22;32787;53.316;8.670;2023-02-15T16:44:13;5.90;89.90
46816;DHT22;32787;53.316;8.670;2023-02-15T16:46:42;5.80;89.90
46816;DHT22;32787;53.316;8.670;2023-02-15T16:49:19;5.60;90.10
46816;DHT22;32787;53.316;8.670;2023-02-15T16:51:57;5.50;90.20
46816;DHT22;32787;53.316;8.670;2023-02-15T16:54:25;5.40;90.40
46816;DHT22;32787;53.316;8.670;2023-02-15T16:56:52;5.30;90.60
46816;DHT22;32787;53.316;8.670;2023-02-15T16:59:38;5.40;90.70
46816;DHT22;32787;53.316;8.670;2023-02-15T17:02:20;5.50;90.20
46816;DHT22;32787;53.316;8.670;2023-02-15T17:05:05;5.30;89.70
46816;DHT22;32787;53.316;8.670;2023-02-15T17:07:31;5.30;89.80
46816;DHT22;32787;53.316;8.670;2023-02-15T17:09:58;5.30;89.70
46816;DHT22;32787;53.316;8.670;2023-02-15T17:16:06;5.00;89.70
46816;DHT22;32787;53.316;8.670;2023-02-15T17:18:44;4.90;90.20
46816;DHT22;32787;53.316;8.670;2023-02-15T17:21:18;5.00;90.80
46816;DHT22;32787;53.316;8.670;2023-02-15T17:23:49;5.00;90.80
46816;DHT22;32787;53.316;8.670;2023-02-15T17:26:31;5.10;90.80
46816;DHT22;32787;53.316;8.670;2023-02-15T17:29:10;5.10;90.30
46816;DHT22;32787;53.316;8.670;2023-02-15T17:31:36;4.90;90.10
46816;DHT22;32787;53.316;8.670;2023-02-15T17:34:02;4.90;90.20
46816;DHT22;32787;53.316;8.670;2023-02-15T17:36:30;4.90;90.10
46816;DHT22;32787;53.316;8.670;2023-02-15T17:41:28;4.70;90.30
46816;DHT22;32787;53.316;8.670;2023-02-15T17:43:55;4.60;90.30
46816;DHT22;32787;53.316;8.670;2023-02-15T17:46:21;4.60;90.40
46816;DHT22;32787;53.316;8.670;2023-02-15T17:48:53;4.60;90.50
46816;DHT22;32787;53.316;8.670;2023-02-15T17:51:20;4.50;90.50
46816;DHT22;32787;53.316;8.670;2023-02-15T17:53:47;4.50;90.80
46816;DHT22;32787;53.316;8.670;2023-02-15T17:56:34;4.50;91.00
46816;DHT22;32787;53.316;8.670;2023-02-15T17:59:00;4.60;91.30
46816;DHT22;32787;53.316;8.670;2023-02-15T18:01:26;4.60;91.30
46816;DHT22;32787;53.316;8.670;2023-02-15T18:04:14;4.60;91.00
46816;DHT22;32787;53.316;8.670;2023-02-15T18:06:59;4.60;90.90
46816;DHT22;32787;53.316;8.670;2023-02-15T18:09:43;4.60;90.70
46816;DHT22;32787;53.316;8.670;2023-02-15T18:12:33;4.50;90.70
46816;DHT22;32787;53.316;8.670;2023-02-15T18:14:59;4.50;90.70
46816;DHT22;32787;53.316;8.670;2023-02-15T18:17:42;4.60;90.30
46816;DHT22;32787;53.316;8.670;2023-02-15T18:20:30;4.60;90.30
46816;DHT22;32787;53.316;8.670;2023-02-15T18:22:56;4.50;90.20
46816;DHT22;32787;53.316;8.670;2023-02-15T18:25:22;4.40;90.40
46816;DHT22;32787;53.316;8.670;2023-02-15T18:27:50;4.40;90.60
46816;DHT22;32787;53.316;8.670;2023-02-15T18:30:20;4.50;90.70
46816;DHT22;32787;53.316;8.670;2023-02-15T18:32:49;4.40;90.70
46816;DHT22;32787;53.316;8.670;2023-02-15T18:35:20;4.30;90.90
46816;DHT22;32787;53.316;8.670;2023-02-15T18:37:47;4.40;90.80
46816;DHT22;32787;53.316;8.670;2023-02-15T18:40:35;4.30;91.00
46816;DHT22;32787;53.316;8.670;2023-02-15T18:42:59;4.30;90.90
46816;DHT22;32787;53.316;8.670;2023-02-15T18:45:27;4.30;90.80
46816;DHT22;32787;53.316;8.670;2023-02-15T18:47:57;4.20;91.20
46816;DHT22;32787;53.316;8.670;2023-02-15T18:50:30;4.30;91.30
46816;DHT22;32787;53.316;8.670;2023-02-15T18:52:57;4.30;91.40
46816;DHT22;32787;53.316;8.670;2023-02-15T18:55:25;4.20;91.00
46816;DHT22;32787;53.316;8.670;2023-02-15T18:57:53;4.10;91.20
46816;DHT22;32787;53.316;8.670;2023-02-15T19:00:25;4.10;91.30
46816;DHT22;32787;53.316;8.670;2023-02-15T19:02:52;4.10;91.10
46816;DHT22;32787;53.316;8.670;2023-02-15T19:05:19;3.90;91.10
46816;DHT22;32787;53.316;8.670;2023-02-15T19:07:45;3.90;91.30
46816;DHT22;32787;53.316;8.670;2023-02-15T19:10:19;3.90;91.30
46816;DHT22;32787;53.316;8.670;2023-02-15T19:12:45;3.90;91.60
46816;DHT22;32787;53.316;8.670;2023-02-15T19:15:23;3.90;91.60
46816;DHT22;32787;53.316;8.670;2023-02-15T19:17:49;3.90;91.70
46816;DHT22;32787;53.316;8.670;2023-02-15T19:20:21;3.80;91.80